Aviation Digital Data Service (ADDS)

Output produced by METARs form (2210 UTC 18 January 2017)
found at http://aviationweather.gov/adds/metars/
 
KDUJ 182104Z 1821/1918 28010KT 2SM BR OVC005 
     FM191600 23006KT P6SM SCT015